sensor_id;sensor_type;location;lat;lon;timestamp;P1;durP1;ratioP1;P2;durP2;ratioP2
11300;SDS011;5706;50.650;13.380;2022-07-29T04:29:08;14.07;;;8.23;;
11300;SDS011;5706;50.650;13.380;2022-07-29T04:31:37;9.27;;;8.07;;
11300;SDS011;5706;50.650;13.380;2022-07-29T04:34:04;9.63;;;7.73;;
11300;SDS011;5706;50.650;13.380;2022-07-29T04:36:32;9.60;;;8.50;;
11300;SDS011;5706;50.650;13.380;2022-07-29T04:39:00;9.30;;;7.97;;
11300;SDS011;5706;50.650;13.380;2022-07-29T04:41:31;10.43;;;8.63;;
11300;SDS011;5706;50.650;13.380;2022-07-29T04:43:59;10.83;;;7.40;;
11300;SDS011;5706;50.650;13.380;2022-07-29T04:46:30;13.63;;;7.87;;
11300;SDS011;5706;50.650;13.380;2022-07-29T04:48:58;10.17;;;7.47;;
11300;SDS011;5706;50.650;13.380;2022-07-29T04:51:26;9.13;;;7.07;;
11300;SDS011;5706;50.650;13.380;2022-07-29T04:53:53;12.07;;;7.80;;
11300;SDS011;5706;50.650;13.380;2022-07-29T04:56:21;9.87;;;7.70;;
11300;SDS011;5706;50.650;13.380;2022-07-29T04:58:52;11.93;;;7.93;;
11300;SDS011;5706;50.650;13.380;2022-07-29T05:01:20;9.27;;;7.20;;
11300;SDS011;5706;50.650;13.380;2022-07-29T05:03:47;17.87;;;9.60;;
11300;SDS011;5706;50.650;13.380;2022-07-29T05:06:15;33.20;;;21.87;;
11300;SDS011;5706;50.650;13.380;2022-07-29T05:08:43;31.97;;;21.70;;
11300;SDS011;5706;50.650;13.380;2022-07-29T05:11:11;35.70;;;21.10;;
11300;SDS011;5706;50.650;13.380;2022-07-29T05:13:38;20.23;;;13.70;;
11300;SDS011;5706;50.650;13.380;2022-07-29T05:16:08;13.07;;;10.20;;
11300;SDS011;5706;50.650;13.380;2022-07-29T05:18:36;13.90;;;8.77;;
11300;SDS011;5706;50.650;13.380;2022-07-29T05:21:04;10.40;;;7.27;;
11300;SDS011;5706;50.650;13.380;2022-07-29T05:23:32;9.53;;;7.50;;
11300;SDS011;5706;50.650;13.380;2022-07-29T05:25:59;12.97;;;7.23;;
11300;SDS011;5706;50.650;13.380;2022-07-29T05:28:32;7.23;;;6.53;;
11300;SDS011;5706;50.650;13.380;2022-07-29T05:34:06;8.40;;;6.80;;
11300;SDS011;5706;50.650;13.380;2022-07-29T05:36:33;7.93;;;6.97;;
11300;SDS011;5706;50.650;13.380;2022-07-29T05:39:01;9.43;;;7.80;;
11300;SDS011;5706;50.650;13.380;2022-07-29T05:41:31;8.67;;;7.40;;
11300;SDS011;5706;50.650;13.380;2022-07-29T05:43:59;8.97;;;6.67;;
11300;SDS011;5706;50.650;13.380;2022-07-29T05:46:27;7.83;;;5.47;;
11300;SDS011;5706;50.650;13.380;2022-07-29T05:48:56;8.67;;;6.33;;
11300;SDS011;5706;50.650;13.380;2022-07-29T05:51:24;7.67;;;6.37;;
11300;SDS011;5706;50.650;13.380;2022-07-29T05:53:51;5.70;;;4.90;;
11300;SDS011;5706;50.650;13.380;2022-07-29T05:56:19;4.30;;;3.57;;
11300;SDS011;5706;50.650;13.380;2022-07-29T05:58:47;5.43;;;3.47;;
11300;SDS011;5706;50.650;13.380;2022-07-29T06:01:14;3.13;;;2.70;;
11300;SDS011;5706;50.650;13.380;2022-07-29T06:03:42;4.50;;;2.87;;
11300;SDS011;5706;50.650;13.380;2022-07-29T06:06:11;12.77;;;4.73;;
11300;SDS011;5706;50.650;13.380;2022-07-29T06:08:39;6.27;;;4.00;;
11300;SDS011;5706;50.650;13.380;2022-07-29T06:11:07;5.43;;;2.80;;
11300;SDS011;5706;50.650;13.380;2022-07-29T06:13:35;4.33;;;2.60;;
11300;SDS011;5706;50.650;13.380;2022-07-29T06:16:03;7.43;;;3.20;;
11300;SDS011;5706;50.650;13.380;2022-07-29T06:18:31;4.23;;;2.70;;
11300;SDS011;5706;50.650;13.380;2022-07-29T06:20:59;3.53;;;2.60;;
11300;SDS011;5706;50.650;13.380;2022-07-29T06:23:28;5.03;;;2.70;;
11300;SDS011;5706;50.650;13.380;2022-07-29T06:25:56;4.67;;;2.73;;
11300;SDS011;5706;50.650;13.380;2022-07-29T06:28:26;3.07;;;2.70;;
11300;SDS011;5706;50.650;13.380;2022-07-29T06:30:54;4.77;;;2.93;;
11300;SDS011;5706;50.650;13.380;2022-07-29T06:33:23;3.43;;;2.77;;
11300;SDS011;5706;50.650;13.380;2022-07-29T06:35:50;4.73;;;2.80;;
11300;SDS011;5706;50.650;13.380;2022-07-29T06:38:18;4.37;;;3.00;;
11300;SDS011;5706;50.650;13.380;2022-07-29T06:40:47;3.23;;;2.50;;
11300;SDS011;5706;50.650;13.380;2022-07-29T06:43:30;3.57;;;2.77;;
11300;SDS011;5706;50.650;13.380;2022-07-29T06:46:01;5.10;;;2.63;;
11300;SDS011;5706;50.650;13.380;2022-07-29T06:48:31;3.20;;;2.90;;
11300;SDS011;5706;50.650;13.380;2022-07-29T06:51:01;3.67;;;2.40;;
11300;SDS011;5706;50.650;13.380;2022-07-29T06:53:30;5.10;;;2.83;;
11300;SDS011;5706;50.650;13.380;2022-07-29T06:56:01;3.20;;;2.50;;
11300;SDS011;5706;50.650;13.380;2022-07-29T06:58:30;4.77;;;3.13;;
11300;SDS011;5706;50.650;13.380;2022-07-29T07:01:00;5.53;;;2.70;;
11300;SDS011;5706;50.650;13.380;2022-07-29T07:03:30;3.90;;;3.20;;
11300;SDS011;5706;50.650;13.380;2022-07-29T07:05:58;8.13;;;2.90;;
11300;SDS011;5706;50.650;13.380;2022-07-29T07:08:26;3.70;;;2.47;;
11300;SDS011;5706;50.650;13.380;2022-07-29T07:10:54;4.13;;;2.80;;
11300;SDS011;5706;50.650;13.380;2022-07-29T07:13:24;5.38;;;2.90;;
11300;SDS011;5706;50.650;13.380;2022-07-29T07:15:53;5.32;;;3.20;;
11300;SDS011;5706;50.650;13.380;2022-07-29T07:18:21;3.63;;;2.50;;
11300;SDS011;5706;50.650;13.380;2022-07-29T07:20:48;3.35;;;2.60;;
11300;SDS011;5706;50.650;13.380;2022-07-29T07:23:16;3.40;;;2.97;;
11300;SDS011;5706;50.650;13.380;2022-07-29T07:25:44;4.75;;;3.03;;
11300;SDS011;5706;50.650;13.380;2022-07-29T07:28:12;8.43;;;3.63;;
11300;SDS011;5706;50.650;13.380;2022-07-29T07:30:41;4.05;;;2.90;;
11300;SDS011;5706;50.650;13.380;2022-07-29T07:33:09;5.35;;;3.30;;
11300;SDS011;5706;50.650;13.380;2022-07-29T07:35:37;3.63;;;2.88;;
11300;SDS011;5706;50.650;13.380;2022-07-29T07:38:05;6.35;;;3.30;;
11300;SDS011;5706;50.650;13.380;2022-07-29T07:40:33;5.82;;;3.40;;
11300;SDS011;5706;50.650;13.380;2022-07-29T07:43:01;5.75;;;3.10;;
11300;SDS011;5706;50.650;13.380;2022-07-29T07:45:30;5.72;;;3.28;;
11300;SDS011;5706;50.650;13.380;2022-07-29T07:48:00;4.28;;;3.60;;
11300;SDS011;5706;50.650;13.380;2022-07-29T07:50:29;8.00;;;3.67;;
11300;SDS011;5706;50.650;13.380;2022-07-29T07:52:57;4.95;;;3.10;;
11300;SDS011;5706;50.650;13.380;2022-07-29T07:55:39;5.43;;;3.25;;
11300;SDS011;5706;50.650;13.380;2022-07-29T07:58:19;6.25;;;3.85;;
11300;SDS011;5706;50.650;13.380;2022-07-29T08:00:55;4.70;;;3.17;;
11300;SDS011;5706;50.650;13.380;2022-07-29T08:03:27;5.22;;;3.58;;
11300;SDS011;5706;50.650;13.380;2022-07-29T08:05:55;5.20;;;3.47;;
11300;SDS011;5706;50.650;13.380;2022-07-29T08:08:23;6.55;;;3.90;;
11300;SDS011;5706;50.650;13.380;2022-07-29T08:10:51;4.85;;;3.70;;
11300;SDS011;5706;50.650;13.380;2022-07-29T08:13:21;5.05;;;3.67;;
11300;SDS011;5706;50.650;13.380;2022-07-29T08:15:53;4.70;;;3.63;;
11300;SDS011;5706;50.650;13.380;2022-07-29T08:18:36;4.93;;;3.40;;
11300;SDS011;5706;50.650;13.380;2022-07-29T08:24:21;5.97;;;3.38;;
11300;SDS011;5706;50.650;13.380;2022-07-29T08:27:39;3.97;;;3.45;;
11300;SDS011;5706;50.650;13.380;2022-07-29T08:30:22;3.88;;;3.05;;
11300;SDS011;5706;50.650;13.380;2022-07-29T08:46:16;9.18;;;3.75;;
11300;SDS011;5706;50.650;13.380;2022-07-29T09:48:25;3.85;;;2.50;;
11300;SDS011;5706;50.650;13.380;2022-07-29T09:50:53;4.75;;;3.08;;
11300;SDS011;5706;50.650;13.380;2022-07-29T09:53:30;8.38;;;3.47;;
11300;SDS011;5706;50.650;13.380;2022-07-29T09:56:01;4.15;;;2.95;;
11300;SDS011;5706;50.650;13.380;2022-07-29T09:58:34;4.10;;;2.78;;
11300;SDS011;5706;50.650;13.380;2022-07-29T10:01:03;3.03;;;2.72;;
11300;SDS011;5706;50.650;13.380;2022-07-29T10:04:02;5.28;;;2.90;;
11300;SDS011;5706;50.650;13.380;2022-07-29T10:09:28;3.47;;;2.70;;
11300;SDS011;5706;50.650;13.380;2022-07-29T10:15:19;3.47;;;2.60;;
11300;SDS011;5706;50.650;13.380;2022-07-29T10:17:59;3.65;;;2.65;;
11300;SDS011;5706;50.650;13.380;2022-07-29T10:21:07;4.05;;;2.58;;
11300;SDS011;5706;50.650;13.380;2022-07-29T10:24:30;3.85;;;3.00;;
11300;SDS011;5706;50.650;13.380;2022-07-29T10:33:21;4.07;;;2.50;;
11300;SDS011;5706;50.650;13.380;2022-07-29T10:36:31;3.75;;;2.85;;
11300;SDS011;5706;50.650;13.380;2022-07-29T10:39:20;5.18;;;3.20;;
11300;SDS011;5706;50.650;13.380;2022-07-29T10:42:09;7.15;;;2.95;;
11300;SDS011;5706;50.650;13.380;2022-07-29T10:44:44;9.18;;;3.20;;
11300;SDS011;5706;50.650;13.380;2022-07-29T10:47:19;4.43;;;2.78;;
11300;SDS011;5706;50.650;13.380;2022-07-29T10:49:57;7.05;;;2.90;;
11300;SDS011;5706;50.650;13.380;2022-07-29T11:23:46;6.10;;;2.90;;
11300;SDS011;5706;50.650;13.380;2022-07-29T11:33:50;8.10;;;3.40;;
11300;SDS011;5706;50.650;13.380;2022-07-29T11:59:30;4.65;;;2.50;;
11300;SDS011;5706;50.650;13.380;2022-07-29T12:05:15;6.72;;;3.20;;
11300;SDS011;5706;50.650;13.380;2022-07-29T12:07:44;3.58;;;2.75;;
11300;SDS011;5706;50.650;13.380;2022-07-29T12:10:33;4.32;;;2.90;;
11300;SDS011;5706;50.650;13.380;2022-07-29T13:21:15;5.68;;;2.90;;
11300;SDS011;5706;50.650;13.380;2022-07-29T13:23:53;4.57;;;2.90;;
11300;SDS011;5706;50.650;13.380;2022-07-29T13:26:21;3.38;;;3.00;;
11300;SDS011;5706;50.650;13.380;2022-07-29T13:28:49;3.75;;;3.10;;
11300;SDS011;5706;50.650;13.380;2022-07-29T13:31:17;4.82;;;2.92;;
11300;SDS011;5706;50.650;13.380;2022-07-29T13:33:46;5.32;;;3.33;;
11300;SDS011;5706;50.650;13.380;2022-07-29T13:36:14;3.53;;;3.15;;
11300;SDS011;5706;50.650;13.380;2022-07-29T13:38:42;5.20;;;3.15;;
11300;SDS011;5706;50.650;13.380;2022-07-29T13:41:10;4.68;;;3.30;;
11300;SDS011;5706;50.650;13.380;2022-07-29T13:43:38;6.55;;;2.97;;
11300;SDS011;5706;50.650;13.380;2022-07-29T13:46:06;8.00;;;3.20;;
11300;SDS011;5706;50.650;13.380;2022-07-29T13:48:34;3.67;;;2.92;;
11300;SDS011;5706;50.650;13.380;2022-07-29T13:51:03;4.38;;;3.20;;
11300;SDS011;5706;50.650;13.380;2022-07-29T13:53:30;7.57;;;3.10;;
11300;SDS011;5706;50.650;13.380;2022-07-29T13:55:58;4.65;;;2.88;;
11300;SDS011;5706;50.650;13.380;2022-07-29T13:58:26;3.40;;;2.80;;
11300;SDS011;5706;50.650;13.380;2022-07-29T14:00:54;3.28;;;3.00;;
11300;SDS011;5706;50.650;13.380;2022-07-29T14:03:23;3.35;;;3.05;;
11300;SDS011;5706;50.650;13.380;2022-07-29T14:05:50;5.18;;;3.20;;
11300;SDS011;5706;50.650;13.380;2022-07-29T14:08:19;3.47;;;2.70;;
11300;SDS011;5706;50.650;13.380;2022-07-29T14:10:47;4.53;;;2.60;;
11300;SDS011;5706;50.650;13.380;2022-07-29T14:13:15;4.03;;;2.75;;
11300;SDS011;5706;50.650;13.380;2022-07-29T14:15:43;4.40;;;2.88;;
11300;SDS011;5706;50.650;13.380;2022-07-29T14:18:11;3.90;;;2.90;;
11300;SDS011;5706;50.650;13.380;2022-07-29T14:20:38;4.22;;;2.95;;
11300;SDS011;5706;50.650;13.380;2022-07-29T14:23:06;5.15;;;2.50;;
11300;SDS011;5706;50.650;13.380;2022-07-29T14:25:36;3.30;;;2.38;;
11300;SDS011;5706;50.650;13.380;2022-07-29T14:28:04;2.97;;;2.33;;
11300;SDS011;5706;50.650;13.380;2022-07-29T14:30:32;4.43;;;2.72;;
11300;SDS011;5706;50.650;13.380;2022-07-29T14:33:00;5.55;;;2.45;;
11300;SDS011;5706;50.650;13.380;2022-07-29T14:35:29;4.30;;;3.13;;
11300;SDS011;5706;50.650;13.380;2022-07-29T14:37:57;6.97;;;3.67;;
11300;SDS011;5706;50.650;13.380;2022-07-29T14:40:24;4.95;;;2.95;;
11300;SDS011;5706;50.650;13.380;2022-07-29T14:42:54;5.10;;;3.78;;
11300;SDS011;5706;50.650;13.380;2022-07-29T14:45:22;3.85;;;3.40;;
11300;SDS011;5706;50.650;13.380;2022-07-29T14:47:50;6.07;;;2.80;;
11300;SDS011;5706;50.650;13.380;2022-07-29T14:50:17;4.25;;;2.63;;
11300;SDS011;5706;50.650;13.380;2022-07-29T14:52:45;5.82;;;2.80;;
11300;SDS011;5706;50.650;13.380;2022-07-29T14:55:13;4.93;;;2.80;;
11300;SDS011;5706;50.650;13.380;2022-07-29T14:57:41;4.72;;;2.70;;
11300;SDS011;5706;50.650;13.380;2022-07-29T15:00:11;4.22;;;2.80;;
11300;SDS011;5706;50.650;13.380;2022-07-29T15:02:40;6.20;;;3.35;;
11300;SDS011;5706;50.650;13.380;2022-07-29T15:05:08;3.45;;;3.00;;
11300;SDS011;5706;50.650;13.380;2022-07-29T15:07:36;5.95;;;3.40;;
11300;SDS011;5706;50.650;13.380;2022-07-29T15:10:04;8.88;;;3.83;;
11300;SDS011;5706;50.650;13.380;2022-07-29T15:12:32;3.33;;;2.90;;
11300;SDS011;5706;50.650;13.380;2022-07-29T15:15:00;3.20;;;2.88;;
11300;SDS011;5706;50.650;13.380;2022-07-29T15:17:31;3.50;;;2.85;;
11300;SDS011;5706;50.650;13.380;2022-07-29T15:19:58;5.07;;;3.45;;
11300;SDS011;5706;50.650;13.380;2022-07-29T15:22:27;3.97;;;3.00;;
11300;SDS011;5706;50.650;13.380;2022-07-29T15:24:54;5.45;;;2.92;;
11300;SDS011;5706;50.650;13.380;2022-07-29T15:27:22;2.95;;;2.72;;
11300;SDS011;5706;50.650;13.380;2022-07-29T15:29:50;4.72;;;3.05;;
11300;SDS011;5706;50.650;13.380;2022-07-29T15:32:18;3.53;;;3.00;;
11300;SDS011;5706;50.650;13.380;2022-07-29T15:34:47;4.38;;;3.40;;
11300;SDS011;5706;50.650;13.380;2022-07-29T15:37:15;3.45;;;3.15;;
11300;SDS011;5706;50.650;13.380;2022-07-29T15:39:43;4.70;;;3.15;;
11300;SDS011;5706;50.650;13.380;2022-07-29T15:42:11;3.35;;;3.15;;
11300;SDS011;5706;50.650;13.380;2022-07-29T15:44:39;3.40;;;3.10;;
11300;SDS011;5706;50.650;13.380;2022-07-29T15:47:07;3.28;;;3.00;;
11300;SDS011;5706;50.650;13.380;2022-07-29T15:49:36;3.60;;;3.30;;
11300;SDS011;5706;50.650;13.380;2022-07-29T15:52:07;3.70;;;3.33;;
11300;SDS011;5706;50.650;13.380;2022-07-29T15:54:37;7.32;;;2.97;;
11300;SDS011;5706;50.650;13.380;2022-07-29T15:57:06;2.83;;;2.55;;
11300;SDS011;5706;50.650;13.380;2022-07-29T15:59:34;3.90;;;3.20;;
11300;SDS011;5706;50.650;13.380;2022-07-29T16:02:02;4.35;;;3.00;;
11300;SDS011;5706;50.650;13.380;2022-07-29T16:04:30;3.55;;;2.75;;
11300;SDS011;5706;50.650;13.380;2022-07-29T16:06:58;6.25;;;2.72;;
11300;SDS011;5706;50.650;13.380;2022-07-29T16:09:27;3.38;;;2.72;;
11300;SDS011;5706;50.650;13.380;2022-07-29T16:11:55;5.72;;;3.15;;
11300;SDS011;5706;50.650;13.380;2022-07-29T16:14:23;4.45;;;2.72;;
11300;SDS011;5706;50.650;13.380;2022-07-29T16:16:51;3.42;;;3.03;;
11300;SDS011;5706;50.650;13.380;2022-07-29T16:19:19;3.25;;;2.80;;
11300;SDS011;5706;50.650;13.380;2022-07-29T16:21:46;3.33;;;3.03;;
11300;SDS011;5706;50.650;13.380;2022-07-29T16:24:14;3.90;;;3.00;;
11300;SDS011;5706;50.650;13.380;2022-07-29T16:26:43;4.57;;;3.13;;
11300;SDS011;5706;50.650;13.380;2022-07-29T16:29:11;4.03;;;2.92;;
11300;SDS011;5706;50.650;13.380;2022-07-29T16:31:39;3.20;;;2.85;;
11300;SDS011;5706;50.650;13.380;2022-07-29T16:34:06;3.22;;;2.90;;
11300;SDS011;5706;50.650;13.380;2022-07-29T16:36:34;6.22;;;3.42;;
11300;SDS011;5706;50.650;13.380;2022-07-29T16:39:02;3.10;;;2.75;;
11300;SDS011;5706;50.650;13.380;2022-07-29T16:41:30;3.75;;;3.10;;
11300;SDS011;5706;50.650;13.380;2022-07-29T16:43:59;3.08;;;2.80;;
11300;SDS011;5706;50.650;13.380;2022-07-29T16:46:27;4.88;;;3.33;;
11300;SDS011;5706;50.650;13.380;2022-07-29T16:48:55;5.25;;;2.90;;
11300;SDS011;5706;50.650;13.380;2022-07-29T16:51:22;5.15;;;4.40;;
11300;SDS011;5706;50.650;13.380;2022-07-29T16:53:50;3.70;;;3.40;;
11300;SDS011;5706;50.650;13.380;2022-07-29T16:56:18;3.50;;;3.10;;
11300;SDS011;5706;50.650;13.380;2022-07-29T16:58:46;5.68;;;3.65;;
11300;SDS011;5706;50.650;13.380;2022-07-29T17:01:15;3.50;;;3.20;;
11300;SDS011;5706;50.650;13.380;2022-07-29T17:03:44;3.60;;;3.30;;
11300;SDS011;5706;50.650;13.380;2022-07-29T17:06:29;3.90;;;3.25;;
11300;SDS011;5706;50.650;13.380;2022-07-29T17:08:59;4.05;;;3.72;;
11300;SDS011;5706;50.650;13.380;2022-07-29T17:11:37;5.68;;;3.60;;
11300;SDS011;5706;50.650;13.380;2022-07-29T17:14:09;6.93;;;4.47;;
11300;SDS011;5706;50.650;13.380;2022-07-29T17:16:38;4.53;;;3.97;;
11300;SDS011;5706;50.650;13.380;2022-07-29T17:19:06;3.75;;;3.40;;
11300;SDS011;5706;50.650;13.380;2022-07-29T17:21:34;4.50;;;4.13;;
11300;SDS011;5706;50.650;13.380;2022-07-29T17:24:02;4.75;;;4.18;;
11300;SDS011;5706;50.650;13.380;2022-07-29T17:26:30;3.75;;;3.33;;
11300;SDS011;5706;50.650;13.380;2022-07-29T17:28:58;3.95;;;3.47;;
11300;SDS011;5706;50.650;13.380;2022-07-29T17:31:26;5.07;;;4.35;;
11300;SDS011;5706;50.650;13.380;2022-07-29T17:33:55;4.30;;;3.90;;
11300;SDS011;5706;50.650;13.380;2022-07-29T17:36:23;4.03;;;3.63;;
11300;SDS011;5706;50.650;13.380;2022-07-29T17:38:51;4.50;;;3.83;;
11300;SDS011;5706;50.650;13.380;2022-07-29T17:41:23;4.53;;;3.88;;
11300;SDS011;5706;50.650;13.380;2022-07-29T17:43:52;4.20;;;3.90;;
11300;SDS011;5706;50.650;13.380;2022-07-29T17:46:22;4.10;;;3.80;;
11300;SDS011;5706;50.650;13.380;2022-07-29T17:48:56;4.10;;;3.72;;
11300;SDS011;5706;50.650;13.380;2022-07-29T17:51:24;4.03;;;3.60;;
11300;SDS011;5706;50.650;13.380;2022-07-29T17:53:53;6.70;;;4.05;;
11300;SDS011;5706;50.650;13.380;2022-07-29T17:56:22;4.63;;;3.72;;
11300;SDS011;5706;50.650;13.380;2022-07-29T17:58:50;4.07;;;3.58;;
11300;SDS011;5706;50.650;13.380;2022-07-29T18:01:18;4.13;;;3.83;;
11300;SDS011;5706;50.650;13.380;2022-07-29T18:03:46;4.75;;;4.25;;
